Big Bear Station Historical Data
Daily Summary for June 20, 2017 Units:  English    Metric   Both
« Previous Day
Next Day »
Daily Weekly Monthly Yearly Custom
  High: Low: Average:
Temperature: 94.3 °F 52.9 °F 72.1 °F
Dew Point: 51.5 °F 22.2 °F 37.1 °F
Humidity: 76 % 9 % 37 %
Wind Speed: 6.8 mph 0.0 mph 1.3 mph
Wind Gust: -999.0 mph - -
Wind:- - SW
Pressure: 30.27 in 30.22 in -
Precipitation: 0.00 in    
Historical Graphs
 
 
Tabular Data for June 20, 2017
Time Temperature Dew Point Pressure Wind Wind Speed Wind Gust Humidity Rainfall Rate (Hourly)
00:12 57.7 °F 43.0 °F 30.25 in Calm   -999.0 mph 58 % 0 in
00:27 57.6 °F 42.0 °F 30.25 in Calm   -999.0 mph 56 % 0 in
00:43 57.0 °F 42.8 °F 30.25 in Calm   -999.0 mph 59 % 0 in
00:58 56.7 °F 40.7 °F 30.25 in Calm   -999.0 mph 55 % 0 in
01:13 56.3 °F 39.9 °F 30.25 in Calm   -999.0 mph 54 % 0 in
01:28 55.9 °F 40.9 °F 30.25 in Calm   -999.0 mph 57 % 0 in
01:43 55.8 °F 41.7 °F 30.24 in Calm   -999.0 mph 59 % 0 in
01:59 55.4 °F 42.2 °F 30.24 in Calm   -999.0 mph 61 % 0 in
02:14 55.2 °F 43.2 °F 30.24 in Calm   -999.0 mph 64 % 0 in
02:29 55.2 °F 44.4 °F 30.24 in Calm   -999.0 mph 67 % 0 in
02:44 54.9 °F 42.1 °F 30.24 in Calm   -999.0 mph 62 % 0 in
02:59 54.5 °F 40.9 °F 30.23 in Calm   -999.0 mph 60 % 0 in
03:15 54.3 °F 41.6 °F 30.23 in Calm   -999.0 mph 62 % 0 in
03:30 54.0 °F 44.4 °F 30.23 in Calm   -999.0 mph 70 % 0 in
03:45 54.0 °F 45.5 °F 30.23 in Calm   -999.0 mph 73 % 0 in
04:00 53.4 °F 44.2 °F 30.23 in Calm   -999.0 mph 71 % 0 in
04:15 53.6 °F 44.1 °F 30.23 in Calm   -999.0 mph 70 % 0 in
04:31 53.6 °F 44.1 °F 30.24 in Calm   -999.0 mph 70 % 0 in
04:46 53.4 °F 44.2 °F 30.24 in Calm   -999.0 mph 71 % 0 in
05:01 53.1 °F 43.6 °F 30.24 in Calm   -999.0 mph 70 % 0 in
05:16 53.2 °F 44.8 °F 30.24 in Calm   -999.0 mph 73 % 0 in
05:31 53.2 °F 45.1 °F 30.25 in Calm   -999.0 mph 74 % 0 in
05:47 53.2 °F 45.8 °F 30.25 in Calm   -999.0 mph 76 % 0 in
06:02 53.1 °F 45.4 °F 30.25 in Calm   -999.0 mph 75 % 0 in
06:17 52.9 °F 45.2 °F 30.25 in Calm   -999.0 mph 75 % 0 in
06:32 53.1 °F 43.9 °F 30.25 in Calm   -999.0 mph 71 % 0 in
06:48 53.8 °F 43.5 °F 30.25 in Calm   -999.0 mph 68 % 0 in
07:03 54.3 °F 44.0 °F 30.25 in Calm   -999.0 mph 68 % 0 in
07:18 55.2 °F 45.2 °F 30.26 in Calm   -999.0 mph 69 % 0 in
07:33 56.3 °F 46.3 °F 30.26 in Calm   -999.0 mph 69 % 0 in
07:48 58.6 °F 47.7 °F 30.26 in Calm   -999.0 mph 67 % 0 in
08:04 59.9 °F 48.9 °F 30.26 in Calm   -999.0 mph 67 % 0 in
08:19 62.1 °F 50.6 °F 30.26 in Calm   -999.0 mph 66 % 0 in
08:34 63.9 °F 50.6 °F 30.26 in Calm   -999.0 mph 62 % 0 in
08:49 66.2 °F 51.5 °F 30.26 in Calm   -999.0 mph 59 % 0 in
09:04 68.7 °F 48.2 °F 30.26 in Calm   -999.0 mph 48 % 0 in
09:20 73.8 °F 36.8 °F 30.26 in North 2.7 mph -999.0 mph 26 % 0 in
09:35 76.1 °F 38.7 °F 30.26 in Calm   -999.0 mph 26 % 0 in
09:50 79.2 °F 40.4 °F 30.26 in WNW 2.2 mph -999.0 mph 25 % 0 in
10:05 80.6 °F 37.1 °F 30.26 in NW 3.2 mph -999.0 mph 21 % 0 in
10:21 82.0 °F 38.2 °F 30.26 in West 2.2 mph -999.0 mph 21 % 0 in
10:36 83.5 °F 34.1 °F 30.26 in ENE 2.2 mph -999.0 mph 17 % 0 in
10:51 83.3 °F 33.9 °F 30.26 in WNW 4.2 mph -999.0 mph 17 % 0 in
11:08 84.9 °F 32.1 °F 30.27 in SSW 6.3 mph -999.0 mph 15 % 0 in
11:23 85.1 °F 30.6 °F 30.27 in NW 4.2 mph -999.0 mph 14 % 0 in
11:38 86.7 °F 31.8 °F 30.27 in ENE 2.7 mph -999.0 mph 14 % 0 in
11:54 87.8 °F 28.9 °F 30.27 in NNE 3.2 mph -999.0 mph 12 % 0 in
12:09 90.0 °F 28.5 °F 30.27 in West 5.3 mph -999.0 mph 11 % 0 in
12:24 91.0 °F 29.2 °F 30.27 in SSE 3.7 mph -999.0 mph 11 % 0 in
12:39 91.6 °F 29.7 °F 30.27 in WNW 2.2 mph -999.0 mph 11 % 0 in
12:55 92.1 °F 32.2 °F 30.27 in SE 2.7 mph -999.0 mph 12 % 0 in
13:10 93.0 °F 30.8 °F 30.27 in South 5.3 mph -999.0 mph 11 % 0 in
13:25 93.0 °F 30.8 °F 30.26 in NNE 5.3 mph -999.0 mph 11 % 0 in
13:41 92.8 °F 32.8 °F 30.26 in NNW 6.3 mph -999.0 mph 12 % 0 in
13:56 93.6 °F 28.9 °F 30.26 in NW 5.8 mph -999.0 mph 10 % 0 in
14:11 92.5 °F 30.4 °F 30.26 in SSW 5.8 mph -999.0 mph 11 % 0 in
14:26 92.1 °F 30.1 °F 30.25 in ESE 1.7 mph -999.0 mph 11 % 0 in
14:42 92.8 °F 28.3 °F 30.25 in Calm   -999.0 mph 10 % 0 in
14:57 93.0 °F 32.9 °F 30.25 in NNW 3.7 mph -999.0 mph 12 % 0 in
15:12 93.0 °F 28.4 °F 30.25 in South 3.7 mph -999.0 mph 10 % 0 in
15:27 91.2 °F 24.5 °F 30.25 in WSW 2.2 mph -999.0 mph 9 % 0 in
15:43 92.1 °F 32.2 °F 30.25 in NW 6.8 mph -999.0 mph 12 % 0 in
15:58 91.2 °F 33.5 °F 30.24 in Calm   -999.0 mph 13 % 0 in
16:14 90.7 °F 31.1 °F 30.24 in WNW 4.7 mph -999.0 mph 12 % 0 in
16:29 90.3 °F 34.7 °F 30.23 in WNW 1.1 mph -999.0 mph 14 % 0 in
16:44 92.1 °F 34.2 °F 30.23 in NW 2.7 mph -999.0 mph 13 % 0 in
17:00 91.2 °F 31.5 °F 30.23 in East 1.7 mph -999.0 mph 12 % 0 in
17:15 92.8 °F 32.8 °F 30.23 in NW 1.1 mph -999.0 mph 12 % 0 in
17:30 94.3 °F 35.9 °F 30.23 in North 1.1 mph -999.0 mph 13 % 0 in
17:46 89.6 °F 32.3 °F 30.23 in South 2.7 mph -999.0 mph 13 % 0 in
18:01 92.5 °F 38.1 °F 30.22 in SE 1.7 mph -999.0 mph 15 % 0 in
18:16 91.8 °F 37.6 °F 30.22 in WNW 3.7 mph -999.0 mph 15 % 0 in
18:31 90.9 °F 36.9 °F 30.22 in North 2.2 mph -999.0 mph 15 % 0 in
18:46 87.8 °F 32.7 °F 30.22 in SW 1.1 mph -999.0 mph 14 % 0 in
19:02 85.5 °F 29.0 °F 30.22 in Calm   -999.0 mph 13 % 0 in
19:17 85.6 °F 29.1 °F 30.22 in Calm   -999.0 mph 13 % 0 in
19:32 80.6 °F 27.0 °F 30.22 in Calm   -999.0 mph 14 % 0 in
19:47 76.8 °F 22.2 °F 30.22 in Calm   -999.0 mph 13 % 0 in
20:02 74.8 °F 22.4 °F 30.22 in Calm   -999.0 mph 14 % 0 in
20:18 73.0 °F 24.1 °F 30.22 in Calm   -999.0 mph 16 % 0 in
20:33 71.2 °F 28.1 °F 30.24 in Calm   -999.0 mph 20 % 0 in
20:48 69.6 °F 30.2 °F 30.24 in Calm   -999.0 mph 23 % 0 in
21:03 67.6 °F 32.4 °F 30.25 in Calm   -999.0 mph 27 % 0 in
21:18 66.2 °F 32.1 °F 30.25 in Calm   -999.0 mph 28 % 0 in
21:34 64.9 °F 31.9 °F 30.25 in Calm   -999.0 mph 29 % 0 in
21:49 64.2 °F 34.5 °F 30.25 in Calm   -999.0 mph 33 % 0 in
22:04 63.1 °F 36.4 °F 30.25 in Calm   -999.0 mph 37 % 0 in
22:19 62.2 °F 34.9 °F 30.25 in Calm   -999.0 mph 36 % 0 in
22:34 61.3 °F 35.5 °F 30.25 in Calm   -999.0 mph 38 % 0 in
22:50 60.6 °F 36.8 °F 30.25 in Calm   -999.0 mph 41 % 0 in
23:05 59.9 °F 39.1 °F 30.25 in Calm   -999.0 mph 46 % 0 in
23:35 58.3 °F 36.5 °F 30.24 in Calm   -999.0 mph 44 % 0 in
23:50 57.6 °F 38.0 °F 30.24 in Calm   -999.0 mph 48 % 0 in
Big Bear CA Weather
Compliments of Weather Underground - 1.5 mb